Time;durP1;ratioP1;P1;durP2;ratioP2;P2;SDS_P1;SDS_P2;PMS_P1;PMS_P2;Temp;Humidity;BMP_temperature;BMP_pressure;BME280_temperature;BME280_humidity;BME280_pressure;Samples;Min_cycle;Max_cycle;Signal;HPM_P1;HPM_P2
2021/03/22 00:01:17;;;;;;;14.20;4.10;;;3.80;99.90;;;;;;5119516;28;20290;-65
2021/03/22 00:03:44;;;;;;;11.00;3.65;;;3.70;99.90;;;;;;5119544;28;20687;-64
2021/03/22 00:06:10;;;;;;;9.98;2.85;;;3.80;99.90;;;;;;5120005;28;20179;-64
2021/03/22 00:08:35;;;;;;;20.63;5.17;;;3.70;99.90;;;;;;5119450;28;20183;-66
2021/03/22 00:11:01;;;;;;;8.87;2.90;;;3.80;99.90;;;;;;5119472;28;20482;-66
2021/03/22 00:13:28;;;;;;;17.88;3.25;;;3.80;99.90;;;;;;5119422;28;20231;-65
2021/03/22 00:15:56;;;;;;;9.38;3.38;;;3.70;99.90;;;;;;5119121;28;20641;-68
2021/03/22 00:18:25;;;;;;;18.40;3.63;;;3.60;99.90;;;;;;5118379;28;20192;-66
2021/03/22 00:20:51;;;;;;;7.15;2.85;;;3.70;99.90;;;;;;5119573;28;20537;-64
2021/03/22 00:23:17;;;;;;;16.38;3.88;;;3.60;99.90;;;;;;5119061;28;20168;-64
2021/03/22 00:25:43;;;;;;;13.03;3.93;;;3.60;99.90;;;;;;5101409;28;20186;-64
2021/03/22 00:28:10;;;;;;;17.20;4.03;;;3.60;99.90;;;;;;5119211;28;20262;-65
2021/03/22 00:30:39;;;;;;;10.23;2.95;;;3.60;99.90;;;;;;5119869;28;20183;-64
2021/03/22 00:33:06;;;;;;;17.13;3.60;;;3.60;99.90;;;;;;5119140;28;20315;-65
2021/03/22 00:35:32;;;;;;;15.93;3.40;;;3.70;99.90;;;;;;5119165;28;20182;-64
2021/03/22 00:37:58;;;;;;;18.93;5.13;;;3.50;99.90;;;;;;5118064;28;20511;-67
2021/03/22 00:40:32;;;;;;;12.70;3.30;;;3.50;99.90;;;;;;5118755;28;20557;-64
2021/03/22 00:42:58;;;;;;;13.50;2.85;;;3.60;99.90;;;;;;5119554;28;20609;-65
2021/03/22 00:45:25;;;;;;;19.67;3.53;;;3.60;99.90;;;;;;5118398;28;20180;-67
2021/03/22 00:47:51;;;;;;;10.05;3.25;;;3.60;99.90;;;;;;5118597;28;20176;-64
2021/03/22 00:50:28;;;;;;;12.95;3.35;;;3.70;99.90;;;;;;5118787;28;20671;-65
2021/03/22 00:52:53;;;;;;;15.48;4.40;;;3.70;99.90;;;;;;5117529;28;20228;-64
2021/03/22 00:55:20;;;;;;;12.53;3.00;;;3.70;99.90;;;;;;5118642;28;20603;-64
2021/03/22 00:57:46;;;;;;;28.02;4.50;;;3.60;99.90;;;;;;5117609;28;20436;-64
2021/03/22 01:00:22;;;;;;;14.60;3.20;;;3.60;99.90;;;;;;5118621;28;20544;-66
2021/03/22 01:02:58;;;;;;;9.80;3.70;;;3.60;99.90;;;;;;5117591;28;20612;-65
2021/03/22 01:05:24;;;;;;;19.80;4.95;;;3.50;99.90;;;;;;5118343;28;20155;-65
2021/03/22 01:07:50;;;;;;;11.57;3.67;;;3.60;99.90;;;;;;5118867;28;20191;-63
2021/03/22 01:10:22;;;;;;;9.75;4.18;;;3.70;99.90;;;;;;5118134;28;20231;-66
2021/03/22 01:12:48;;;;;;;15.82;3.70;;;3.70;99.90;;;;;;5118096;28;20185;-66
2021/03/22 01:15:14;;;;;;;16.57;4.07;;;3.70;99.90;;;;;;5117826;27;20504;-64
2021/03/22 01:17:39;;;;;;;16.43;3.27;;;3.70;99.90;;;;;;5118030;28;20445;-64
2021/03/22 01:20:16;;;;;;;16.33;3.10;;;3.80;99.90;;;;;;5117205;28;20452;-66
2021/03/22 01:22:42;;;;;;;8.23;2.20;;;3.70;99.90;;;;;;5117772;28;20187;-66
2021/03/22 01:25:09;;;;;;;11.63;3.20;;;3.60;99.90;;;;;;5117820;28;20168;-65
2021/03/22 01:27:37;;;;;;;8.98;2.78;;;3.40;99.90;;;;;;5117776;28;20187;-67
2021/03/22 01:30:31;;;;;;;12.30;3.33;;;3.40;99.90;;;;;;5118059;28;20175;-66
2021/03/22 01:32:59;;;;;;;20.95;3.03;;;3.40;99.90;;;;;;5105039;28;20726;-65
2021/03/22 01:35:25;;;;;;;12.02;3.45;;;3.30;99.90;;;;;;5116457;28;20183;-64
2021/03/22 01:37:53;;;;;;;9.45;3.03;;;3.40;99.90;;;;;;5118032;28;20195;-65
2021/03/22 01:40:53;;;;;;;20.15;3.63;;;3.40;99.90;;;;;;5118748;28;20217;-65
2021/03/22 01:43:50;;;;;;;14.65;4.38;;;3.50;99.90;;;;;;5116958;28;20155;-65
2021/03/22 01:46:16;;;;;;;16.48;4.07;;;3.50;99.90;;;;;;5118107;28;20198;-64
2021/03/22 01:48:42;;;;;;;11.50;2.93;;;3.50;99.90;;;;;;5118272;28;20507;-69
2021/03/22 01:51:08;;;;;;;10.37;2.83;;;3.40;99.90;;;;;;5117217;28;20449;-68
2021/03/22 01:53:35;;;;;;;14.15;2.70;;;3.30;99.90;;;;;;5118004;28;20230;-64
2021/03/22 01:56:12;;;;;;;20.75;3.90;;;3.30;99.90;;;;;;5117821;28;20175;-64
2021/03/22 01:58:38;;;;;;;13.10;3.08;;;3.30;99.90;;;;;;5117613;28;20240;-64
2021/03/22 02:01:04;;;;;;;13.80;3.27;;;3.30;99.90;;;;;;5117709;28;20282;-64
2021/03/22 02:03:29;;;;;;;13.00;3.10;;;3.40;99.90;;;;;;5117163;28;20178;-64
2021/03/22 02:05:55;;;;;;;12.70;3.10;;;3.30;99.90;;;;;;5117315;28;20280;-68
2021/03/22 02:08:29;;;;;;;9.60;2.33;;;3.30;99.90;;;;;;5117594;28;20198;-64
2021/03/22 02:10:55;;;;;;;9.38;3.00;;;3.30;99.90;;;;;;5117886;28;20194;-66
2021/03/22 02:13:32;;;;;;;11.93;3.30;;;3.20;99.90;;;;;;5117201;28;20179;-63
2021/03/22 02:16:27;;;;;;;10.57;2.90;;;3.20;99.90;;;;;;5117954;28;20443;-65
2021/03/22 02:19:24;;;;;;;10.30;3.55;;;3.20;99.90;;;;;;5117096;28;20188;-65
2021/03/22 02:22:23;;;;;;;8.55;3.40;;;3.20;99.90;;;;;;5117333;28;20228;-66
2021/03/22 02:25:12;;;;;;;9.85;3.00;;;3.20;99.90;;;;;;5117512;28;20495;-63
2021/03/22 02:28:16;;;;;;;12.25;3.58;;;3.10;99.90;;;;;;5116487;28;20588;-64
2021/03/22 02:31:19;;;;;;;17.73;3.75;;;3.20;99.90;;;;;;5117404;28;20244;-63
2021/03/22 02:34:22;;;;;;;8.55;2.35;;;3.10;99.90;;;;;;5115940;28;20220;-63
2021/03/22 02:37:06;;;;;;;10.52;3.92;;;3.10;99.90;;;;;;5116775;28;20228;-66
2021/03/22 02:39:54;;;;;;;9.77;3.88;;;3.10;99.90;;;;;;5116839;28;20187;-63
2021/03/22 02:42:21;;;;;;;14.35;2.67;;;3.00;99.90;;;;;;5117282;28;20170;-64
2021/03/22 02:44:47;;;;;;;12.38;4.05;;;3.10;99.90;;;;;;5116861;28;20254;-64
2021/03/22 02:47:29;;;;;;;16.03;2.87;;;3.10;99.90;;;;;;5116995;28;20270;-66
2021/03/22 02:49:58;;;;;;;28.38;4.80;;;3.10;99.90;;;;;;5115312;28;20218;-66
2021/03/22 02:52:44;;;;;;;11.50;2.78;;;3.10;99.90;;;;;;5116280;28;20561;-66
2021/03/22 02:55:34;;;;;;;14.80;3.47;;;3.10;99.90;;;;;;5116026;28;20183;-67
2021/03/22 02:58:05;;;;;;;14.63;3.45;;;3.10;99.90;;;;;;5116381;28;20202;-67
2021/03/22 03:01:01;;;;;;;10.38;2.95;;;3.10;99.90;;;;;;5116641;28;20203;-68
2021/03/22 03:03:29;;;;;;;14.02;3.88;;;3.10;99.90;;;;;;5115238;28;20179;-67
2021/03/22 03:05:55;;;;;;;7.03;3.08;;;3.20;99.90;;;;;;5115944;28;20563;-66
2021/03/22 03:08:29;;;;;;;11.10;2.63;;;3.20;99.90;;;;;;5115924;28;20265;-67
2021/03/22 03:10:54;;;;;;;13.15;3.25;;;3.10;99.90;;;;;;5115934;28;20420;-66
2021/03/22 03:13:20;;;;;;;22.17;4.50;;;3.20;99.90;;;;;;5116599;28;20186;-64
2021/03/22 03:15:45;;;;;;;12.73;2.43;;;3.20;99.90;;;;;;5116372;28;20437;-64
2021/03/22 03:18:11;;;;;;;31.50;4.80;;;3.20;99.90;;;;;;5116814;28;20195;-64
2021/03/22 03:20:37;;;;;;;10.90;3.17;;;3.30;99.90;;;;;;5116376;28;20233;-64
2021/03/22 03:23:03;;;;;;;15.93;3.63;;;3.30;99.90;;;;;;5116173;28;20570;-64
2021/03/22 03:25:29;;;;;;;14.07;3.33;;;3.20;99.90;;;;;;5116604;28;20587;-63
2021/03/22 03:27:55;;;;;;;16.38;3.90;;;3.20;99.90;;;;;;5116226;28;20171;-63
2021/03/22 03:30:31;;;;;;;15.57;3.45;;;3.30;99.90;;;;;;5115293;28;20183;-66
2021/03/22 03:32:58;;;;;;;10.85;2.85;;;3.20;99.90;;;;;;5115532;28;20218;-64
2021/03/22 03:35:27;;;;;;;20.83;5.85;;;3.20;99.90;;;;;;5116040;28;20183;-66
2021/03/22 03:37:54;;;;;;;20.90;4.10;;;3.30;99.90;;;;;;5114896;28;20638;-64
2021/03/22 03:40:26;;;;;;;12.45;3.20;;;3.30;99.90;;;;;;5115581;28;20203;-65
2021/03/22 03:42:51;;;;;;;13.73;3.35;;;3.30;99.90;;;;;;5116046;28;20183;-65
2021/03/22 03:45:18;;;;;;;8.73;3.70;;;3.20;99.90;;;;;;5115972;28;20313;-65
2021/03/22 03:47:45;;;;;;;13.32;3.50;;;3.30;99.90;;;;;;5116426;28;20179;-64
2021/03/22 03:50:19;;;;;;;24.40;3.60;;;3.30;99.90;;;;;;5115937;28;20216;-65
2021/03/22 03:52:47;;;;;;;22.50;3.55;;;3.40;99.90;;;;;;5115960;28;20493;-65
2021/03/22 03:55:15;;;;;;;11.10;3.80;;;3.40;99.90;;;;;;5115944;28;20214;-64
2021/03/22 03:57:44;;;;;;;14.43;3.42;;;3.30;99.90;;;;;;5115555;28;20193;-66
2021/03/22 04:00:12;;;;;;;17.13;4.55;;;3.50;99.90;;;;;;5116134;28;20300;-65
2021/03/22 04:02:40;;;;;;;16.17;4.90;;;3.60;99.90;;;;;;5115794;28;20172;-63
2021/03/22 04:05:07;;;;;;;17.50;4.03;;;3.60;99.90;;;;;;5115524;28;20171;-63
2021/03/22 04:07:33;;;;;;;8.68;3.58;;;3.50;99.90;;;;;;5116138;28;20195;-65
2021/03/22 04:09:58;;;;;;;16.60;5.33;;;3.60;99.90;;;;;;5115314;28;20171;-66
2021/03/22 04:12:24;;;;;;;11.70;3.10;;;3.50;99.90;;;;;;5115622;28;20175;-66
2021/03/22 04:14:50;;;;;;;24.77;4.40;;;3.40;99.90;;;;;;5118508;28;20183;-66
2021/03/22 04:17:16;;;;;;;16.33;3.60;;;3.50;99.90;;;;;;5120832;28;20259;-65
2021/03/22 04:19:42;;;;;;;13.02;4.03;;;3.60;99.90;;;;;;5120559;28;20207;-64
2021/03/22 04:22:10;;;;;;;15.60;4.00;;;3.60;99.90;;;;;;5119557;28;20179;-65
2021/03/22 04:24:35;;;;;;;15.73;3.85;;;3.60;99.90;;;;;;5118958;28;20425;-65
2021/03/22 04:27:02;;;;;;;21.90;3.60;;;3.60;99.90;;;;;;5119029;28;20209;-64
2021/03/22 04:29:27;;;;;;;13.43;3.60;;;3.60;99.90;;;;;;5117844;28;20244;-64
2021/03/22 04:31:53;;;;;;;22.03;4.00;;;3.70;99.90;;;;;;5119019;28;20179;-65
2021/03/22 04:34:20;;;;;;;19.83;3.90;;;3.70;99.90;;;;;;5118772;28;20207;-65
2021/03/22 04:36:46;;;;;;;16.80;3.85;;;3.60;99.90;;;;;;5118136;28;20228;-65
2021/03/22 04:39:12;;;;;;;15.33;3.70;;;3.60;99.90;;;;;;5119137;28;20179;-66
2021/03/22 04:41:39;;;;;;;13.20;3.80;;;3.50;99.90;;;;;;5118912;28;20223;-65
2021/03/22 04:44:06;;;;;;;18.60;4.47;;;3.50;99.90;;;;;;5118898;28;20441;-64
2021/03/22 04:46:32;;;;;;;14.38;3.50;;;3.50;99.90;;;;;;5119447;28;20620;-66
2021/03/22 04:48:58;;;;;;;15.60;6.20;;;3.50;99.90;;;;;;5119909;28;20183;-65
2021/03/22 04:51:24;;;;;;;12.27;3.35;;;3.50;99.90;;;;;;5118517;28;20179;-64
2021/03/22 04:53:50;;;;;;;9.32;3.50;;;3.60;99.90;;;;;;5119756;28;20171;-65
2021/03/22 04:56:16;;;;;;;13.93;4.43;;;3.40;99.90;;;;;;5119563;28;20182;-65
2021/03/22 04:58:41;;;;;;;9.73;3.60;;;3.50;99.90;;;;;;5118517;28;20425;-65
2021/03/22 05:01:08;;;;;;;18.50;4.10;;;3.50;99.90;;;;;;5119674;28;20639;-65
2021/03/22 05:03:35;;;;;;;13.13;4.25;;;3.50;99.90;;;;;;5119574;28;20167;-65
2021/03/22 05:06:03;;;;;;;10.18;3.53;;;3.50;99.90;;;;;;5119140;28;20204;-65
2021/03/22 05:08:30;;;;;;;10.52;3.97;;;3.60;99.90;;;;;;5118746;28;20201;-65
2021/03/22 05:10:59;;;;;;;16.77;4.47;;;3.50;99.90;;;;;;5117971;28;20167;-66
2021/03/22 05:13:26;;;;;;;15.50;4.30;;;3.60;99.90;;;;;;5117410;28;20207;-67
2021/03/22 05:16:05;;;;;;;18.15;3.92;;;3.60;99.90;;;;;;5118006;28;20179;-65
2021/03/22 05:18:34;;;;;;;12.02;4.88;;;3.60;99.90;;;;;;5118239;28;20171;-65
2021/03/22 05:21:10;;;;;;;13.85;5.82;;;3.50;99.90;;;;;;5117789;28;20219;-64
2021/03/22 05:23:38;;;;;;;11.30;4.47;;;3.50;99.90;;;;;;5117958;28;20270;-63
2021/03/22 05:26:05;;;;;;;15.35;4.55;;;3.50;99.90;;;;;;5117305;28;20180;-66
2021/03/22 05:28:33;;;;;;;19.63;4.13;;;3.50;99.90;;;;;;5117782;28;20631;-64
2021/03/22 05:30:59;;;;;;;18.70;5.18;;;3.50;99.90;;;;;;5117599;28;20332;-64
2021/03/22 05:33:25;;;;;;;15.27;4.30;;;3.50;99.90;;;;;;5118002;28;20179;-64
2021/03/22 05:35:54;;;;;;;9.38;3.58;;;3.50;99.90;;;;;;5117797;28;20171;-65
2021/03/22 05:38:20;;;;;;;10.57;4.50;;;3.60;99.90;;;;;;5118210;28;20172;-65
2021/03/22 05:40:53;;;;;;;9.90;3.88;;;3.60;99.90;;;;;;5117550;28;20195;-63
2021/03/22 05:43:51;;;;;;;18.05;6.10;;;3.60;99.90;;;;;;5117672;28;20620;-63
2021/03/22 05:46:21;;;;;;;12.23;4.15;;;3.70;99.90;;;;;;5116338;28;20191;-63
2021/03/22 05:49:30;;;;;;;11.15;3.80;;;3.60;99.90;;;;;;5117826;28;20167;-70
2021/03/22 05:52:07;;;;;;;10.63;4.07;;;3.60;99.90;;;;;;5117843;28;20179;-66
2021/03/22 05:55:01;;;;;;;11.80;4.32;;;3.70;99.90;;;;;;5116691;28;20607;-67
2021/03/22 05:57:26;;;;;;;11.45;3.97;;;3.70;99.90;;;;;;5117003;28;20183;-66
2021/03/22 06:00:05;;;;;;;14.93;5.20;;;3.80;99.90;;;;;;5117077;28;20229;-66
2021/03/22 06:02:42;;;;;;;17.40;3.80;;;3.80;99.90;;;;;;5117471;28;20194;-63
2021/03/22 06:05:39;;;;;;;15.25;4.85;;;3.60;99.90;;;;;;5119708;27;21386;-65
2021/03/22 06:08:24;;;;;;;12.00;4.55;;;3.80;99.90;;;;;;5118923;27;20222;-64
2021/03/22 06:10:53;;;;;;;14.15;4.68;;;3.90;99.90;;;;;;5137071;27;20178;-65
2021/03/22 06:13:30;;;;;;;12.77;4.18;;;3.80;99.90;;;;;;5133103;27;20267;-65
2021/03/22 06:16:05;;;;;;;17.58;5.40;;;4.00;99.90;;;;;;5130011;27;20517;-65
2021/03/22 06:18:35;;;;;;;13.48;6.22;;;3.80;99.90;;;;;;5128281;27;20270;-62
2021/03/22 06:21:13;;;;;;;11.05;4.60;;;3.80;99.90;;;;;;5128525;27;20213;-64
2021/03/22 06:23:41;;;;;;;9.35;3.85;;;3.90;99.90;;;;;;5130905;27;20182;-64
2021/03/22 06:26:36;;;;;;;12.27;4.63;;;3.90;99.90;;;;;;5137037;27;20494;-65
2021/03/22 06:29:11;;;;;;;12.63;5.20;;;4.00;99.90;;;;;;5128587;27;20538;-65
2021/03/22 06:31:40;;;;;;;17.10;5.03;;;3.90;99.90;;;;;;5137518;27;20179;-65
2021/03/22 06:34:08;;;;;;;14.35;5.93;;;4.10;99.90;;;;;;5136626;27;20172;-62
2021/03/22 06:36:35;;;;;;;13.20;5.20;;;4.20;99.10;;;;;;5136530;27;20504;-65
2021/03/22 06:39:05;;;;;;;14.90;4.82;;;4.10;64.30;;;;;;5136021;27;20178;-63
2021/03/22 06:41:46;;;;;;;7.70;3.80;;;4.10;51.30;;;;;;5136507;27;20199;-65
2021/03/22 06:44:32;;;;;;;11.52;4.00;;;4.20;41.10;;;;;;5136411;27;20166;-65
2021/03/22 06:47:13;;;;;;;10.43;3.95;;;4.20;7.80;;;;;;5122635;27;20196;-67
2021/03/22 06:49:41;;;;;;;12.70;3.70;;;4.40;1.00;;;;;;5136952;27;20265;-67
2021/03/22 06:52:17;;;;;;;13.25;5.53;;;4.30;1.00;;;;;;5137484;27;20513;-66
2021/03/22 06:54:55;;;;;;;12.15;4.10;;;4.50;1.00;;;;;;5137466;27;20181;-65
2021/03/22 06:57:29;;;;;;;19.00;5.32;;;4.50;1.00;;;;;;5137262;27;20179;-65
2021/03/22 07:00:27;;;;;;;9.73;4.45;;;4.70;1.00;;;;;;5136718;27;20603;-63
2021/03/22 07:03:15;;;;;;;12.38;5.05;;;4.70;1.00;;;;;;5136082;28;20217;-64
2021/03/22 07:05:42;;;;;;;9.63;5.35;;;4.80;1.00;;;;;;5138243;28;20169;-66
2021/03/22 07:08:13;;;;;;;17.27;5.40;;;4.80;1.00;;;;;;5134105;28;20505;-67
2021/03/22 07:11:03;;;;;;;8.52;5.55;;;4.90;1.00;;;;;;5124684;28;20181;-63
2021/03/22 07:13:31;;;;;;;14.07;5.30;;;4.90;1.00;;;;;;5129042;28;20581;-65
2021/03/22 07:16:18;;;;;;;10.13;5.03;;;5.20;1.00;;;;;;5136563;27;20174;-67
2021/03/22 07:19:15;;;;;;;14.80;4.90;;;5.60;1.00;;;;;;5116186;28;20204;-62
2021/03/22 07:21:48;;;;;;;11.25;5.00;;;5.50;99.90;;;;;;5113639;28;20218;-70
2021/03/22 07:24:32;;;;;;;15.85;5.72;;;5.30;99.90;;;;;;5136468;28;20195;-65
2021/03/22 07:27:24;;;;;;;8.07;3.92;;;5.70;99.90;;;;;;5138513;27;20207;-67
2021/03/22 07:30:24;;;;;;;12.68;5.25;;;5.70;99.90;;;;;;5133494;28;20184;-67
2021/03/22 07:33:19;;;;;;;8.02;3.80;;;5.90;1.00;;;;;;5135777;27;20187;-70
2021/03/22 07:36:03;;;;;;;9.88;4.30;;;5.80;1.00;;;;;;5128093;28;20192;-69
2021/03/22 07:38:44;;;;;;;17.35;4.68;;;5.50;99.90;;;;;;5137785;27;20191;-67
2021/03/22 07:41:34;;;;;;;7.47;4.25;;;5.80;99.90;;;;;;5138588;28;20271;-68
2021/03/22 07:44:33;;;;;;;8.77;4.22;;;5.50;1.00;;;;;;5138663;27;20504;-66
2021/03/22 07:47:23;;;;;;;11.18;3.05;;;4.80;99.90;;;;;;5140106;28;20347;-66
2021/03/22 07:49:54;;;;;;;9.73;4.82;;;4.60;1.00;;;;;;5144110;27;20262;-68
2021/03/22 07:52:36;;;;;;;9.30;4.60;;;4.80;1.00;;;;;;5147236;27;20473;-68
2021/03/22 07:55:14;;;;;;;17.13;7.10;;;4.90;99.90;;;;;;5143923;27;20499;-64
2021/03/22 07:57:57;;;;;;;9.68;4.93;;;5.20;99.90;;;;;;5144133;27;20176;-65
2021/03/22 08:00:34;;;;;;;6.35;4.50;;;5.50;99.90;;;;;;5144602;27;20683;-66
2021/03/22 08:03:20;;;;;;;15.38;6.88;;;5.70;1.00;;;;;;5142370;27;20639;-66
2021/03/22 08:06:00;;;;;;;24.33;6.47;;;6.10;1.00;;;;;;5141891;27;20618;-65
2021/03/22 08:08:59;;;;;;;15.98;6.90;;;6.20;99.90;;;;;;5142318;27;20200;-67
2021/03/22 08:11:34;;;;;;;15.07;4.90;;;6.30;99.90;;;;;;5142777;27;20198;-66
2021/03/22 08:14:26;;;;;;;21.38;7.18;;;6.40;1.00;;;;;;5143364;27;20568;-65
2021/03/22 08:17:15;;;;;;;26.15;11.45;;;6.20;99.90;;;;;;5130267;27;20207;-64
2021/03/22 08:19:54;;;;;;;13.88;6.72;;;6.60;99.90;;;;;;5122545;28;20269;-65
2021/03/22 08:22:55;;;;;;;13.60;5.55;;;6.90;99.90;;;;;;5124067;28;20198;-67
2021/03/22 08:25:42;;;;;;;14.88;5.57;;;6.40;1.00;;;;;;5121560;28;20223;-64
2021/03/22 08:28:26;;;;;;;9.55;4.10;;;6.30;1.00;;;;;;5122885;28;20643;-69
2021/03/22 08:31:01;;;;;;;11.73;4.60;;;6.20;99.90;;;;;;5139120;27;20636;-64
2021/03/22 08:33:38;;;;;;;12.75;5.15;;;5.80;99.90;;;;;;5143482;27;20188;-65
2021/03/22 08:36:31;;;;;;;13.45;5.20;;;5.80;99.90;;;;;;5140497;27;20262;-63
2021/03/22 08:39:21;;;;;;;11.30;4.85;;;5.60;99.90;;;;;;5139786;27;20631;-62
2021/03/22 08:41:55;;;;;;;10.43;4.38;;;5.60;1.00;;;;;;5132172;27;20276;-62
2021/03/22 08:44:25;;;;;;;9.88;4.07;;;5.70;99.90;;;;;;5139294;27;20184;-61
2021/03/22 08:47:14;;;;;;;10.63;4.68;;;5.90;99.90;;;;;;5123137;27;20616;-61
2021/03/22 08:49:45;;;;;;;11.90;5.18;;;5.80;99.90;;;;;;5141156;27;20200;-63
2021/03/22 08:52:32;;;;;;;13.27;4.50;;;5.90;99.90;;;;;;5142674;27;20240;-69
2021/03/22 08:55:04;;;;;;;9.00;3.53;;;6.10;19.60;;;;;;5143372;27;20186;-64
2021/03/22 08:57:35;;;;;;;22.08;4.30;;;5.90;99.90;;;;;;5140933;27;20195;-65
2021/03/22 09:00:30;;;;;;;9.90;4.55;;;6.00;99.90;;;;;;5141587;27;20294;-64
2021/03/22 09:03:01;;;;;;;10.77;5.88;;;6.30;1.00;;;;;;5133364;27;20193;-67
2021/03/22 09:05:29;;;;;;;15.18;4.90;;;6.00;1.00;;;;;;5140225;27;20796;-68
2021/03/22 09:08:20;;;;;;;12.63;4.05;;;6.10;1.00;;;;;;5140029;27;20196;-66
2021/03/22 09:10:47;;;;;;;10.00;4.93;;;6.20;1.00;;;;;;5138036;27;20171;-66
2021/03/22 09:13:36;;;;;;;10.05;4.45;;;6.40;99.90;;;;;;5138366;27;20196;-63
2021/03/22 09:16:22;;;;;;;9.82;4.07;;;6.30;1.00;;;;;;5125620;27;20633;-63
2021/03/22 09:19:13;;;;;;;9.85;3.58;;;6.20;1.00;;;;;;5117011;28;20572;-65
2021/03/22 09:21:55;;;;;;;6.95;2.97;;;6.00;99.90;;;;;;5118832;28;20200;-67
2021/03/22 09:24:45;;;;;;;7.88;3.30;;;6.20;1.00;;;;;;5117137;28;20205;-67
2021/03/22 09:27:14;;;;;;;8.32;3.40;;;6.30;1.00;;;;;;5118131;28;20170;-65
2021/03/22 09:30:13;;;;;;;10.23;3.15;;;6.50;1.00;;;;;;5122529;27;20184;-65
2021/03/22 09:32:41;;;;;;;13.38;4.68;;;6.60;99.90;;;;;;5137715;27;20190;-63
2021/03/22 09:35:18;;;;;;;6.32;3.80;;;6.60;1.00;;;;;;5135584;27;20228;-65
2021/03/22 09:38:21;;;;;;;10.15;4.60;;;7.00;1.00;;;;;;5135969;27;20182;-60
2021/03/22 09:40:50;;;;;;;12.75;4.43;;;6.80;1.00;;;;;;5137759;27;20207;-65
2021/03/22 09:43:19;;;;;;;10.98;4.50;;;6.80;99.90;;;;;;5137181;27;20181;-64
2021/03/22 09:45:55;;;;;;;12.45;3.70;;;6.90;1.00;;;;;;5137155;27;20172;-62
2021/03/22 09:48:30;;;;;;;8.18;3.58;;;7.20;99.90;;;;;;5137125;27;20167;-62
2021/03/22 09:51:05;;;;;;;10.50;3.78;;;7.10;1.00;;;;;;5136805;27;20184;-63
2021/03/22 09:53:56;;;;;;;9.35;3.20;;;6.80;99.90;;;;;;5136193;27;20183;-63
2021/03/22 09:56:27;;;;;;;11.07;3.35;;;7.10;1.00;;;;;;5136041;27;20187;-65
2021/03/22 09:58:52;;;;;;;7.07;4.07;;;7.10;1.00;;;;;;5136978;27;20216;-66
2021/03/22 10:01:31;;;;;;;6.10;4.50;;;7.30;1.00;;;;;;5135900;27;20228;-65
2021/03/22 10:04:12;;;;;;;12.13;4.57;;;7.40;99.90;;;;;;5135580;27;20180;-64
2021/03/22 10:06:53;;;;;;;5.32;3.15;;;7.60;30.50;;;;;;5136366;27;20196;-65
2021/03/22 10:09:44;;;;;;;9.32;3.60;;;7.10;99.90;;;;;;5136786;27;20180;-66
2021/03/22 10:12:09;;;;;;;8.50;3.90;;;7.20;99.90;;;;;;5135755;27;20675;-66
2021/03/22 10:14:39;;;;;;;9.33;3.50;;;7.60;1.00;;;;;;5136031;27;20181;-65
2021/03/22 10:17:06;;;;;;;5.95;3.53;;;7.70;1.00;;;;;;5133697;27;20205;-63
2021/03/22 10:19:36;;;;;;;13.15;3.90;;;7.90;1.00;;;;;;5133790;27;20184;-62
2021/03/22 10:22:16;;;;;;;4.40;2.47;;;7.90;28.00;;;;;;5133751;27;20215;-63
2021/03/22 10:25:30;;;;;;;7.60;2.85;;;8.60;1.00;;;;;;5134654;27;20197;-63
2021/03/22 10:28:01;;;;;;;4.95;2.63;;;9.30;1.00;;;;;;5120403;27;20621;-62
2021/03/22 10:30:27;;;;;;;6.05;2.67;;;9.30;1.00;;;;;;5131701;27;20189;-68
2021/03/22 10:33:01;;;;;;;5.60;2.83;;;9.30;1.00;;;;;;5133539;27;20474;-68
2021/03/22 10:35:46;;;;;;;5.72;3.13;;;8.90;1.00;;;;;;5134866;27;20640;-62
2021/03/22 10:38:20;;;;;;;9.85;3.60;;;9.20;1.00;;;;;;5135161;27;20185;-65
2021/03/22 10:40:46;;;;;;;7.60;2.63;;;9.10;1.00;;;;;;5134937;27;20205;-69
2021/03/22 10:43:29;;;;;;;6.47;3.08;;;9.00;1.00;;;;;;5133478;27;20185;-66
2021/03/22 10:45:59;;;;;;;5.70;3.03;;;9.50;1.00;;;;;;5134928;27;20264;-67
2021/03/22 10:48:34;;;;;;;5.53;2.70;;;9.90;1.00;;;;;;5135860;27;20182;-68
2021/03/22 10:51:01;;;;;;;7.82;3.00;;;10.10;99.90;;;;;;5133806;27;20185;-63
2021/03/22 10:53:27;;;;;;;11.45;3.53;;;9.60;99.90;;;;;;5135375;27;20229;-69
2021/03/22 10:55:53;;;;;;;4.83;2.53;;;9.50;1.00;;;;;;5135179;27;20182;-71
2021/03/22 10:58:33;;;;;;;5.17;2.40;;;10.00;99.90;;;;;;5135819;27;20186;-67
2021/03/22 11:01:08;;;;;;;8.82;2.58;;;9.70;99.90;;;;;;5134603;27;20479;-62
2021/03/22 11:03:35;;;;;;;7.82;2.95;;;9.70;99.90;;;;;;5134259;27;20180;-62
2021/03/22 11:06:10;;;;;;;7.32;3.38;;;10.00;99.90;;;;;;5135287;27;20182;-65
2021/03/22 11:08:39;;;;;;;6.28;3.20;;;10.10;99.90;;;;;;5133772;28;20186;-67
2021/03/22 11:11:14;;;;;;;6.03;2.80;;;10.30;99.90;;;;;;5135321;27;20261;-65
2021/03/22 11:13:43;;;;;;;10.35;3.33;;;9.80;99.90;;;;;;5134675;27;20298;-66
2021/03/22 11:16:13;;;;;;;8.45;3.60;;;9.60;99.90;;;;;;5134709;27;20534;-65
2021/03/22 11:18:38;;;;;;;5.63;2.65;;;9.60;99.90;;;;;;5134351;27;20187;-64
2021/03/22 11:21:04;;;;;;;5.70;2.53;;;9.40;1.00;;;;;;5134053;27;20215;-64
2021/03/22 11:23:43;;;;;;;4.90;2.60;;;9.60;1.00;;;;;;5137196;27;20201;-66
2021/03/22 11:26:14;;;;;;;4.13;3.15;;;9.60;99.90;;;;;;5138574;27;20475;-68
2021/03/22 11:28:43;;;;;;;7.82;2.97;;;9.70;99.90;;;;;;5139262;27;20506;-66
2021/03/22 11:31:31;;;;;;;5.00;2.97;;;10.00;99.90;;;;;;5139652;27;20212;-71
2021/03/22 11:34:13;;;;;;;4.80;3.05;;;10.00;99.90;;;;;;5138244;27;20268;-69
2021/03/22 11:36:41;;;;;;;4.80;2.60;;;9.80;99.90;;;;;;5139243;27;20571;-68
2021/03/22 11:39:20;;;;;;;6.05;2.80;;;10.30;99.90;;;;;;5138655;27;20570;-67
2021/03/22 11:41:54;;;;;;;5.50;2.55;;;10.80;99.90;;;;;;5138206;27;20599;-63
2021/03/22 11:44:44;;;;;;;4.22;2.70;;;10.70;99.90;;;;;;5138340;27;20509;-66
2021/03/22 11:47:54;;;;;;;10.23;2.75;;;10.60;99.90;;;;;;5138321;27;20193;-66
2021/03/22 11:50:36;;;;;;;9.85;3.75;;;10.30;99.90;;;;;;5115001;27;20194;-65
2021/03/22 11:53:19;;;;;;;7.50;3.60;;;10.40;99.90;;;;;;5138012;27;20687;-64
2021/03/22 11:55:49;;;;;;;5.30;3.03;;;10.70;99.90;;;;;;5138372;27;20190;-62
2021/03/22 11:58:39;;;;;;;7.57;3.08;;;10.70;99.90;;;;;;5138366;27;20213;-66
2021/03/22 12:01:23;;;;;;;7.10;2.85;;;10.40;99.90;;;;;;5138101;27;20563;-67
2021/03/22 12:04:13;;;;;;;4.20;3.10;;;10.10;99.90;;;;;;5136911;27;20170;-67
2021/03/22 12:06:51;;;;;;;4.85;3.15;;;10.30;99.90;;;;;;5138040;27;20237;-65
2021/03/22 12:09:16;;;;;;;4.53;2.97;;;10.00;99.90;;;;;;5138068;27;20634;-67
2021/03/22 12:11:43;;;;;;;8.50;3.00;;;10.10;99.90;;;;;;5131630;27;20187;-64
2021/03/22 12:14:09;;;;;;;2.72;1.90;;;10.20;99.90;;;;;;5117900;28;20189;-64
2021/03/22 12:16:37;;;;;;;5.50;3.10;;;10.20;99.90;;;;;;5118148;28;20194;-67
2021/03/22 12:19:21;;;;;;;6.82;2.95;;;9.70;99.90;;;;;;5116456;28;20432;-66
2021/03/22 12:21:47;;;;;;;8.05;4.25;;;9.70;1.00;;;;;;5116812;28;20225;-68
2021/03/22 12:24:14;;;;;;;4.28;3.05;;;10.20;99.90;;;;;;5115956;28;20216;-61
2021/03/22 12:26:40;;;;;;;3.58;2.92;;;10.60;99.90;;;;;;5117040;28;20182;-63
2021/03/22 12:29:06;;;;;;;7.00;3.10;;;10.30;99.90;;;;;;5117018;28;20183;-64
2021/03/22 12:31:50;;;;;;;4.60;2.90;;;9.90;99.90;;;;;;5116002;28;20584;-66
2021/03/22 12:34:18;;;;;;;4.82;2.80;;;9.90;1.00;;;;;;5116353;28;20533;-65
2021/03/22 12:36:45;;;;;;;7.25;3.70;;;9.40;1.00;;;;;;5123692;27;20735;-63
2021/03/22 12:39:24;;;;;;;5.15;4.22;;;9.40;1.00;;;;;;5137456;27;20273;-64
2021/03/22 12:41:56;;;;;;;4.82;2.60;;;9.60;1.00;;;;;;5137474;27;20213;-65
2021/03/22 12:44:21;;;;;;;6.75;2.95;;;9.80;99.90;;;;;;5137053;27;20213;-65
2021/03/22 12:46:47;;;;;;;4.03;2.90;;;9.90;99.90;;;;;;5137197;27;20194;-65
2021/03/22 12:49:17;;;;;;;6.10;3.00;;;9.80;99.90;;;;;;5137292;27;20173;-66
2021/03/22 12:51:43;;;;;;;3.03;2.20;;;9.90;1.00;;;;;;5137151;27;20182;-64
2021/03/22 12:54:10;;;;;;;6.57;2.13;;;9.90;1.00;;;;;;5136679;27;20192;-69
2021/03/22 12:56:37;;;;;;;2.97;2.38;;;9.70;1.00;;;;;;5136272;27;20784;-69
2021/03/22 12:59:03;;;;;;;3.67;2.97;;;9.60;1.00;;;;;;5135982;27;20197;-67
2021/03/22 13:01:29;;;;;;;4.03;3.10;;;10.00;1.00;;;;;;5137175;27;20206;-68
2021/03/22 13:04:04;;;;;;;7.53;2.60;;;10.10;99.90;;;;;;5136337;27;20195;-70
2021/03/22 13:06:30;;;;;;;4.70;2.95;;;9.90;99.90;;;;;;5136966;27;20544;-66
2021/03/22 13:08:56;;;;;;;4.60;3.50;;;10.10;99.90;;;;;;5137028;27;20182;-71
2021/03/22 13:11:23;;;;;;;5.97;2.77;;;10.00;99.90;;;;;;5136481;27;20249;-68
2021/03/22 13:13:50;;;;;;;4.20;2.83;;;9.70;99.90;;;;;;5136780;27;20243;-68
2021/03/22 13:16:20;;;;;;;3.85;3.15;;;9.60;1.00;;;;;;5137252;27;20288;-63
2021/03/22 13:18:46;;;;;;;4.05;2.95;;;9.30;1.00;;;;;;5136983;27;20185;-65
2021/03/22 13:21:18;;;;;;;4.50;2.83;;;9.30;1.00;;;;;;5136675;27;20206;-64
2021/03/22 13:23:46;;;;;;;7.45;3.78;;;9.60;1.00;;;;;;5136085;27;20186;-62
2021/03/22 13:26:15;;;;;;;3.25;2.95;;;9.50;1.00;;;;;;5136764;27;20532;-64
2021/03/22 13:28:43;;;;;;;3.25;2.10;;;9.30;1.00;;;;;;5136695;27;20243;-67
2021/03/22 13:31:13;;;;;;;4.00;3.05;;;9.10;99.90;;;;;;5135544;27;20189;-63